BAW465 EGLL-EDDK
Flight info
| Callsign | BAW465 |
|---|---|
| Flight time | 0h 48m |
| Altitude | 33000 |
| Route | DET L6 DVR UL9 KONAN DCT KOK UL607 SPI T857 DENOV T861 ERUKI T856 DEPOK DEPOK2V |
| Aircraft | A320/M-SDE3FGHIRWY/LB1 |
Departure
| Time | 2026-04-20 15:57 |
|---|---|
| Airport | London Heathrow Airport (EGLL) |
Arrival
| Time | 2026-04-20 16:45 |
|---|---|
| Airport | Cologne Bonn Airport (EDDK) |
| Time | Latitude | Longitude | Altitude | Speed | Heading |
|---|---|---|---|---|---|
| 2026-04-20 15:31 | 51.46931 | -0.48715 | 89 ft | 0 kts | 359° |
| 2026-04-20 15:51 | 51.46920 | -0.48715 | 86 ft | 3 kts | 359° |
| 2026-04-20 15:52 | 51.46900 | -0.48715 | 88 ft | 3 kts | 359° |
| 2026-04-20 15:52 | 51.46883 | -0.48716 | 88 ft | 3 kts | 42° |
| 2026-04-20 15:52 | 51.46877 | -0.48737 | 88 ft | 2 kts | 88° |
| 2026-04-20 15:53 | 51.46876 | -0.48786 | 87 ft | 2 kts | 89° |
| 2026-04-20 15:53 | 51.46876 | -0.48795 | 86 ft | 1 kts | 89° |
| 2026-04-20 15:55 | 51.46866 | -0.48765 | 88 ft | 8 kts | 137° |
| 2026-04-20 15:55 | 51.46776 | -0.48749 | 86 ft | 19 kts | 180° |
| 2026-04-20 15:55 | 51.46604 | -0.48753 | 86 ft | 26 kts | 192° |
| 2026-04-20 15:56 | 51.46479 | -0.48698 | 87 ft | 21 kts | 102° |
| 2026-04-20 15:56 | 51.46479 | -0.48451 | 87 ft | 23 kts | 89° |
| 2026-04-20 15:56 | 51.46480 | -0.48128 | 88 ft | 52 kts | 89° |
| 2026-04-20 15:56 | 51.46482 | -0.47193 | 87 ft | 113 kts | 90° |
| 2026-04-20 15:57 | 51.46488 | -0.45665 | 154 ft | 154 kts | 91° |
| 2026-04-20 15:57 | 51.46497 | -0.43976 | 817 ft | 150 kts | 87° |
| 2026-04-20 15:57 | 51.46514 | -0.42297 | 1481 ft | 155 kts | 89° |
| 2026-04-20 15:57 | 51.46133 | -0.40533 | 1789 ft | 184 kts | 123° |
| 2026-04-20 15:58 | 51.45286 | -0.38882 | 2266 ft | 198 kts | 126° |
| 2026-04-20 15:58 | 51.44379 | -0.37031 | 2630 ft | 223 kts | 119° |
| 2026-04-20 15:58 | 51.43709 | -0.34672 | 3162 ft | 242 kts | 103° |
| 2026-04-20 15:58 | 51.43318 | -0.32038 | 4023 ft | 250 kts | 101° |
| 2026-04-20 15:59 | 51.42917 | -0.29269 | 5059 ft | 253 kts | 100° |
| 2026-04-20 15:59 | 51.42526 | -0.26542 | 6003 ft | 258 kts | 100° |
| 2026-04-20 15:59 | 51.42134 | -0.23717 | 6934 ft | 263 kts | 101° |
| 2026-04-20 15:59 | 51.41737 | -0.20812 | 7777 ft | 269 kts | 100° |
| 2026-04-20 16:00 | 51.41334 | -0.17851 | 8634 ft | 275 kts | 99° |
| 2026-04-20 16:00 | 51.40921 | -0.14813 | 9476 ft | 282 kts | 101° |
| 2026-04-20 16:00 | 51.40499 | -0.11706 | 10294 ft | 289 kts | 101° |
| 2026-04-20 16:00 | 51.40056 | -0.08455 | 10676 ft | 311 kts | 100° |
| 2026-04-20 16:01 | 51.39574 | -0.04953 | 10949 ft | 333 kts | 101° |
| 2026-04-20 16:01 | 51.39062 | -0.01269 | 11518 ft | 343 kts | 101° |
| 2026-04-20 16:01 | 51.38539 | 0.02480 | 12284 ft | 347 kts | 101° |
| 2026-04-20 16:01 | 51.38010 | 0.06272 | 13046 ft | 352 kts | 101° |
| 2026-04-20 16:02 | 51.37472 | 0.10122 | 13767 ft | 357 kts | 101° |
| 2026-04-20 16:02 | 51.36921 | 0.14035 | 14438 ft | 362 kts | 101° |
| 2026-04-20 16:02 | 51.36363 | 0.17986 | 15092 ft | 366 kts | 101° |
| 2026-04-20 16:02 | 51.35800 | 0.21983 | 15717 ft | 371 kts | 101° |
| 2026-04-20 16:03 | 51.35229 | 0.26038 | 16335 ft | 376 kts | 101° |
| 2026-04-20 16:03 | 51.34648 | 0.30146 | 16946 ft | 381 kts | 101° |
| 2026-04-20 16:03 | 51.34057 | 0.34310 | 17554 ft | 386 kts | 101° |
| 2026-04-20 16:03 | 51.33465 | 0.38471 | 18147 ft | 392 kts | 100° |
| 2026-04-20 16:04 | 51.32852 | 0.42747 | 18659 ft | 399 kts | 100° |
| 2026-04-20 16:04 | 51.32224 | 0.47107 | 19244 ft | 405 kts | 100° |
| 2026-04-20 16:04 | 51.31584 | 0.51528 | 19783 ft | 411 kts | 100° |
| 2026-04-20 16:04 | 51.30935 | 0.56014 | 20317 ft | 417 kts | 100° |
| 2026-04-20 16:05 | 51.30273 | 0.60557 | 20832 ft | 423 kts | 101° |
| 2026-04-20 16:05 | 51.29529 | 0.65141 | 21326 ft | 430 kts | 103° |
| 2026-04-20 16:05 | 51.28698 | 0.69764 | 21816 ft | 436 kts | 104° |
| 2026-04-20 16:05 | 51.27812 | 0.74437 | 22294 ft | 443 kts | 105° |
| 2026-04-20 16:06 | 51.26898 | 0.79171 | 22771 ft | 449 kts | 105° |
| 2026-04-20 16:06 | 51.25979 | 0.83960 | 23245 ft | 454 kts | 104° |
| 2026-04-20 16:06 | 51.25057 | 0.88824 | 23709 ft | 460 kts | 104° |
| 2026-04-20 16:06 | 51.24136 | 0.93756 | 24093 ft | 465 kts | 104° |
| 2026-04-20 16:07 | 51.23218 | 0.98723 | 24540 ft | 469 kts | 104° |
| 2026-04-20 16:07 | 51.22293 | 1.03736 | 24968 ft | 473 kts | 104° |
| 2026-04-20 16:07 | 51.21361 | 1.08781 | 25373 ft | 477 kts | 104° |
| 2026-04-20 16:07 | 51.20417 | 1.13876 | 25776 ft | 480 kts | 104° |
| 2026-04-20 16:08 | 51.19459 | 1.19001 | 26171 ft | 484 kts | 104° |
| 2026-04-20 16:08 | 51.18491 | 1.24156 | 26549 ft | 488 kts | 105° |
| 2026-04-20 16:08 | 51.17507 | 1.29358 | 26927 ft | 492 kts | 105° |
| 2026-04-20 16:08 | 51.16581 | 1.34628 | 27290 ft | 494 kts | 99° |
| 2026-04-20 16:09 | 51.16062 | 1.40031 | 27649 ft | 494 kts | 91° |
| 2026-04-20 16:09 | 51.15810 | 1.45511 | 28047 ft | 497 kts | 90° |
| 2026-04-20 16:09 | 51.15555 | 1.51021 | 28427 ft | 501 kts | 90° |
| 2026-04-20 16:09 | 51.15289 | 1.56575 | 28777 ft | 504 kts | 90° |
| 2026-04-20 16:10 | 51.15014 | 1.62167 | 29120 ft | 508 kts | 91° |
| 2026-04-20 16:10 | 51.14731 | 1.67793 | 29459 ft | 512 kts | 91° |
| 2026-04-20 16:10 | 51.14445 | 1.73468 | 29791 ft | 516 kts | 91° |
| 2026-04-20 16:10 | 51.14154 | 1.79188 | 30128 ft | 520 kts | 91° |
| 2026-04-20 16:11 | 51.13858 | 1.84943 | 30442 ft | 523 kts | 91° |
| 2026-04-20 16:11 | 51.13561 | 1.90726 | 30761 ft | 525 kts | 91° |
| 2026-04-20 16:11 | 51.13259 | 1.96541 | 31146 ft | 526 kts | 91° |
| 2026-04-20 16:11 | 51.12954 | 2.02345 | 31511 ft | 526 kts | 92° |
| 2026-04-20 16:12 | 51.12650 | 2.08125 | 31948 ft | 524 kts | 92° |
| 2026-04-20 16:12 | 51.12341 | 2.13902 | 32452 ft | 521 kts | 92° |
| 2026-04-20 16:12 | 51.12034 | 2.19549 | 32952 ft | 518 kts | 92° |
| 2026-04-20 16:12 | 51.11721 | 2.25262 | 33203 ft | 517 kts | 93° |
| 2026-04-20 16:13 | 51.11104 | 2.36482 | 33250 ft | 503 kts | 93° |
| 2026-04-20 16:13 | 51.10481 | 2.47520 | 33244 ft | 499 kts | 93° |
| 2026-04-20 16:14 | 51.09855 | 2.58512 | 33240 ft | 499 kts | 93° |
| 2026-04-20 16:14 | 51.08720 | 2.69390 | 33232 ft | 500 kts | 105° |
| 2026-04-20 16:15 | 51.06788 | 2.80028 | 33238 ft | 501 kts | 105° |
| 2026-04-20 16:15 | 51.04856 | 2.90652 | 33271 ft | 500 kts | 105° |
| 2026-04-20 16:16 | 51.02915 | 3.01265 | 33267 ft | 499 kts | 105° |
| 2026-04-20 16:16 | 51.00970 | 3.11855 | 33252 ft | 499 kts | 106° |
| 2026-04-20 16:17 | 50.99032 | 3.22345 | 33243 ft | 498 kts | 106° |
| 2026-04-20 16:17 | 50.97066 | 3.32887 | 33251 ft | 498 kts | 106° |
| 2026-04-20 16:18 | 50.95099 | 3.43395 | 33238 ft | 497 kts | 106° |
| 2026-04-20 16:18 | 50.93119 | 3.53900 | 33240 ft | 496 kts | 106° |
| 2026-04-20 16:19 | 50.91132 | 3.64375 | 33237 ft | 496 kts | 106° |
| 2026-04-20 16:19 | 50.89132 | 3.74829 | 33234 ft | 496 kts | 107° |
| 2026-04-20 16:20 | 50.87114 | 3.85257 | 33248 ft | 494 kts | 107° |
| 2026-04-20 16:20 | 50.85097 | 3.95627 | 33244 ft | 492 kts | 107° |
| 2026-04-20 16:21 | 50.83083 | 4.05896 | 33241 ft | 492 kts | 107° |
| 2026-04-20 16:21 | 50.81053 | 4.16219 | 33239 ft | 491 kts | 107° |
| 2026-04-20 16:22 | 50.79013 | 4.26529 | 33188 ft | 492 kts | 107° |
| 2026-04-20 16:22 | 50.76958 | 4.36887 | 33185 ft | 496 kts | 107° |
| 2026-04-20 16:23 | 50.74886 | 4.47301 | 33189 ft | 498 kts | 107° |
| 2026-04-20 16:23 | 50.72783 | 4.57741 | 33193 ft | 499 kts | 107° |
| 2026-04-20 16:24 | 50.70709 | 4.68147 | 33203 ft | 500 kts | 107° |
| 2026-04-20 16:24 | 50.68696 | 4.78638 | 33198 ft | 500 kts | 106° |
| 2026-04-20 16:25 | 50.66672 | 4.89130 | 33206 ft | 500 kts | 107° |
| 2026-04-20 16:25 | 50.64939 | 4.97886 | 33204 ft | 500 kts | 107° |
| 2026-04-20 16:26 | 50.62793 | 5.08293 | 33200 ft | 499 kts | 108° |
| 2026-04-20 16:26 | 50.60636 | 5.18612 | 33221 ft | 499 kts | 108° |
| 2026-04-20 16:27 | 50.58475 | 5.28960 | 33210 ft | 497 kts | 108° |
| 2026-04-20 16:27 | 50.56320 | 5.39300 | 33207 ft | 497 kts | 108° |
| 2026-04-20 16:28 | 50.54161 | 5.49609 | 33200 ft | 496 kts | 108° |
| 2026-04-20 16:28 | 50.52732 | 5.60149 | 33206 ft | 492 kts | 91° |
| 2026-04-20 16:29 | 50.52686 | 5.65482 | 32738 ft | 485 kts | 83° |
| 2026-04-20 16:29 | 50.53207 | 5.70683 | 32074 ft | 478 kts | 70° |
| 2026-04-20 16:29 | 50.54185 | 5.75658 | 31490 ft | 474 kts | 68° |
| 2026-04-20 16:29 | 50.55217 | 5.80563 | 30985 ft | 470 kts | 67° |
| 2026-04-20 16:30 | 50.56262 | 5.85394 | 30489 ft | 465 kts | 67° |
| 2026-04-20 16:30 | 50.57303 | 5.90187 | 29955 ft | 461 kts | 67° |
| 2026-04-20 16:30 | 50.58324 | 5.94941 | 29424 ft | 456 kts | 67° |
| 2026-04-20 16:30 | 50.59320 | 5.99652 | 28899 ft | 451 kts | 68° |
| 2026-04-20 16:31 | 50.60294 | 6.04313 | 28412 ft | 445 kts | 68° |
| 2026-04-20 16:31 | 50.61243 | 6.08906 | 27885 ft | 435 kts | 69° |
| 2026-04-20 16:31 | 50.62162 | 6.13392 | 27055 ft | 425 kts | 69° |
| 2026-04-20 16:31 | 50.62967 | 6.17819 | 26265 ft | 418 kts | 76° |
| 2026-04-20 16:32 | 50.63373 | 6.22323 | 25516 ft | 411 kts | 85° |
| 2026-04-20 16:32 | 50.63093 | 6.32255 | 23921 ft | 395 kts | 93° |
| 2026-04-20 16:32 | 50.62880 | 6.36538 | 23097 ft | 388 kts | 93° |
| 2026-04-20 16:33 | 50.62669 | 6.40743 | 22225 ft | 382 kts | 93° |
| 2026-04-20 16:33 | 50.62458 | 6.44871 | 21372 ft | 376 kts | 92° |
| 2026-04-20 16:33 | 50.62246 | 6.48945 | 20494 ft | 371 kts | 93° |
| 2026-04-20 16:33 | 50.62034 | 6.52977 | 19633 ft | 366 kts | 92° |
| 2026-04-20 16:34 | 50.61832 | 6.56945 | 18814 ft | 361 kts | 92° |
| 2026-04-20 16:34 | 50.61637 | 6.60811 | 17896 ft | 357 kts | 93° |
| 2026-04-20 16:34 | 50.61433 | 6.64695 | 16967 ft | 354 kts | 92° |
| 2026-04-20 16:34 | 50.61236 | 6.68524 | 16102 ft | 349 kts | 94° |
| 2026-04-20 16:35 | 50.61042 | 6.72300 | 15249 ft | 345 kts | 93° |
| 2026-04-20 16:35 | 50.60839 | 6.76049 | 14413 ft | 344 kts | 94° |
| 2026-04-20 16:35 | 50.60704 | 6.78586 | 14123 ft | 343 kts | 94° |
| 2026-04-20 16:35 | 50.60513 | 6.82260 | 13691 ft | 339 kts | 93° |
| 2026-04-20 16:36 | 50.60313 | 6.85950 | 13174 ft | 338 kts | 94° |
| 2026-04-20 16:36 | 50.60112 | 6.89602 | 12694 ft | 329 kts | 92° |
| 2026-04-20 16:36 | 50.59919 | 6.93132 | 12036 ft | 320 kts | 93° |
| 2026-04-20 16:36 | 50.59728 | 6.96574 | 11392 ft | 312 kts | 92° |
| 2026-04-20 16:37 | 50.59529 | 6.99940 | 10761 ft | 306 kts | 94° |
| 2026-04-20 16:37 | 50.59444 | 7.03241 | 10141 ft | 298 kts | 81° |
| 2026-04-20 16:37 | 50.59866 | 7.06385 | 9463 ft | 291 kts | 72° |
| 2026-04-20 16:37 | 50.60524 | 7.09365 | 8775 ft | 286 kts | 67° |
| 2026-04-20 16:38 | 50.61240 | 7.12243 | 8150 ft | 280 kts | 67° |
| 2026-04-20 16:38 | 50.61956 | 7.15063 | 7553 ft | 275 kts | 67° |
| 2026-04-20 16:38 | 50.62652 | 7.17838 | 6964 ft | 271 kts | 66° |
| 2026-04-20 16:38 | 50.63331 | 7.20571 | 6399 ft | 266 kts | 67° |
| 2026-04-20 16:39 | 50.64003 | 7.23265 | 5838 ft | 261 kts | 65° |
| 2026-04-20 16:39 | 50.64862 | 7.25721 | 5300 ft | 253 kts | 51° |
| 2026-04-20 16:39 | 50.65929 | 7.27909 | 4748 ft | 250 kts | 49° |
| 2026-04-20 16:39 | 50.67014 | 7.30025 | 4200 ft | 247 kts | 48° |
| 2026-04-20 16:40 | 50.68263 | 7.31787 | 3647 ft | 239 kts | 24° |
| 2026-04-20 16:40 | 50.69783 | 7.32658 | 3130 ft | 233 kts | 14° |
| 2026-04-20 16:40 | 50.71311 | 7.33315 | 3002 ft | 218 kts | 10° |
| 2026-04-20 16:40 | 50.72784 | 7.33407 | 3002 ft | 210 kts | 351° |
| 2026-04-20 16:41 | 50.74125 | 7.32721 | 3002 ft | 195 kts | 332° |
| 2026-04-20 16:41 | 50.75166 | 7.31486 | 3017 ft | 179 kts | 319° |
| 2026-04-20 16:41 | 50.76061 | 7.30199 | 2863 ft | 171 kts | 319° |
| 2026-04-20 16:41 | 50.76936 | 7.28946 | 2636 ft | 167 kts | 319° |
| 2026-04-20 16:42 | 50.77743 | 7.27786 | 2434 ft | 147 kts | 320° |
| 2026-04-20 16:42 | 50.78459 | 7.26763 | 2235 ft | 134 kts | 320° |
| 2026-04-20 16:42 | 50.79135 | 7.25785 | 2046 ft | 130 kts | 320° |
| 2026-04-20 16:42 | 50.79800 | 7.24830 | 1889 ft | 129 kts | 320° |
| 2026-04-20 16:43 | 50.80460 | 7.23875 | 1719 ft | 128 kts | 320° |
| 2026-04-20 16:43 | 50.81121 | 7.22928 | 1568 ft | 127 kts | 319° |
| 2026-04-20 16:43 | 50.81780 | 7.21977 | 1393 ft | 129 kts | 319° |
| 2026-04-20 16:43 | 50.82442 | 7.21017 | 1201 ft | 129 kts | 319° |
| 2026-04-20 16:44 | 50.83100 | 7.20067 | 1025 ft | 128 kts | 320° |
| 2026-04-20 16:44 | 50.83755 | 7.19121 | 825 ft | 127 kts | 321° |
| 2026-04-20 16:44 | 50.84413 | 7.18172 | 626 ft | 128 kts | 320° |
| 2026-04-20 16:44 | 50.85076 | 7.17213 | 486 ft | 130 kts | 320° |
| 2026-04-20 16:45 | 50.85744 | 7.16246 | 363 ft | 130 kts | 320° |
| 2026-04-20 16:45 | 50.86399 | 7.15310 | 271 ft | 116 kts | 317° |
| 2026-04-20 16:45 | 50.86873 | 7.14608 | 255 ft | 69 kts | 318° |
| 2026-04-20 16:45 | 50.87128 | 7.14242 | 259 ft | 31 kts | 319° |
| 2026-04-20 16:46 | 50.87268 | 7.13993 | 254 ft | 20 kts | 296° |
| 2026-04-20 16:46 | 50.87312 | 7.13773 | 248 ft | 20 kts | 283° |
| 2026-04-20 16:46 | 50.87340 | 7.13553 | 239 ft | 22 kts | 279° |
| 2026-04-20 16:46 | 50.87343 | 7.13515 | 238 ft | 1 kts | 277° |
| 2026-04-20 16:47 | 50.87383 | 7.13414 | 238 ft | 24 kts | 315° |
| 2026-04-20 16:47 | 50.87526 | 7.13206 | 232 ft | 30 kts | 317° |
| 2026-04-20 16:47 | 50.87664 | 7.13009 | 231 ft | 27 kts | 317° |
| 2026-04-20 16:47 | 50.87792 | 7.12797 | 230 ft | 23 kts | 278° |
| 2026-04-20 16:48 | 50.87831 | 7.12625 | 230 ft | 18 kts | 332° |
| 2026-04-20 16:48 | 50.87946 | 7.12572 | 230 ft | 15 kts | 320° |
| 2026-04-20 16:48 | 50.88029 | 7.12454 | 230 ft | 18 kts | 317° |
| 2026-04-20 16:48 | 50.88096 | 7.12310 | 230 ft | 14 kts | 290° |
| 2026-04-20 16:49 | 50.88104 | 7.12271 | 230 ft | 7 kts | 287° |
| 2026-04-20 16:49 | 50.88157 | 7.12144 | 230 ft | 15 kts | 306° |
| 2026-04-20 16:49 | 50.88160 | 7.12082 | 230 ft | 5 kts | 221° |
| 2026-04-20 16:49 | 50.88137 | 7.12056 | 230 ft | 1 kts | 214° |
| 2026-04-20 16:50 | 50.88125 | 7.12042 | 230 ft | 2 kts | 215° |
| 2026-04-20 16:50 | 50.88122 | 7.12039 | 230 ft | 0 kts | 215° |